createdAt,value
2019-05-30T00:01:58.603Z,7.18
2019-05-30T00:04:28.370Z,7.16
2019-05-30T00:07:00.536Z,7.08
2019-05-30T00:09:30.333Z,7.03
2019-05-30T00:12:00.990Z,6.99
2019-05-30T00:14:31.697Z,6.96
2019-05-30T00:17:01.161Z,6.94
2019-05-30T00:19:33.772Z,6.90
2019-05-30T00:22:03.720Z,6.86
2019-05-30T00:24:33.190Z,6.83
2019-05-30T00:27:02.635Z,6.78
2019-05-30T00:29:32.089Z,6.76
2019-05-30T00:32:01.641Z,6.73
2019-05-30T00:34:31.067Z,6.70
2019-05-30T00:37:01.977Z,6.66
2019-05-30T00:39:31.472Z,6.62
2019-05-30T00:42:02.073Z,6.59
2019-05-30T00:44:31.678Z,6.62
2019-05-30T00:47:02.326Z,6.65
2019-05-30T00:49:31.968Z,6.66
2019-05-30T00:52:02.643Z,6.62
2019-05-30T00:54:32.602Z,6.58
2019-05-30T00:57:02.786Z,6.43
2019-05-30T00:59:32.257Z,6.31
2019-05-30T01:02:02.789Z,6.30
2019-05-30T01:04:32.922Z,6.26
2019-05-30T01:07:03.575Z,6.25
2019-05-30T01:09:33.362Z,6.25
2019-05-30T01:12:03.137Z,6.22
2019-05-30T01:14:32.923Z,6.17
2019-05-30T01:17:03.145Z,6.13
2019-05-30T01:19:32.639Z,6.14
2019-05-30T01:22:03.397Z,6.21
2019-05-30T01:24:33.158Z,6.14
2019-05-30T01:27:03.444Z,6.12
2019-05-30T01:29:33.010Z,6.13
2019-05-30T01:32:05.540Z,6.11
2019-05-30T01:34:35.481Z,6.08
2019-05-30T01:37:05.826Z,6.12
2019-05-30T01:39:35.440Z,6.12
2019-05-30T01:42:05.904Z,6.14
2019-05-30T01:44:35.483Z,6.13
2019-05-30T01:47:06.282Z,6.12
2019-05-30T01:49:35.863Z,6.12
2019-05-30T01:52:06.688Z,6.16
2019-05-30T01:54:36.479Z,6.13
2019-05-30T01:57:06.777Z,6.11
2019-05-30T01:59:36.494Z,6.12
2019-05-30T02:02:07.239Z,6.10
2019-05-30T02:04:36.911Z,6.06
2019-05-30T02:07:07.330Z,6.09
2019-05-30T02:09:36.921Z,6.08
2019-05-30T02:12:07.629Z,6.07
2019-05-30T02:14:37.437Z,6.09
2019-05-30T02:17:07.827Z,6.11
2019-05-30T02:19:37.331Z,6.12
2019-05-30T02:22:07.738Z,6.12
2019-05-30T02:24:37.824Z,6.10
2019-05-30T02:27:08.342Z,6.06
2019-05-30T02:29:37.768Z,6.03
2019-05-30T02:32:09.027Z,5.99
2019-05-30T02:34:38.736Z,6.05
2019-05-30T02:37:10.312Z,6.04
2019-05-30T02:39:39.593Z,6.01
2019-05-30T02:42:09.721Z,5.98
2019-05-30T02:44:39.677Z,5.98
2019-05-30T02:47:09.688Z,6.00
2019-05-30T02:49:40.541Z,5.98
2019-05-30T02:52:10.873Z,5.96
2019-05-30T02:54:40.969Z,5.91
2019-05-30T02:57:12.578Z,5.88
2019-05-30T02:59:42.234Z,5.91
2019-05-30T03:02:15.146Z,5.88
2019-05-30T03:04:42.773Z,5.91
2019-05-30T03:07:13.009Z,5.92
2019-05-30T03:09:42.662Z,5.91
2019-05-30T03:12:13.404Z,5.88
2019-05-30T03:14:43.080Z,5.88
2019-05-30T03:17:14.702Z,5.85
2019-05-30T03:19:43.934Z,5.84
2019-05-30T03:22:14.024Z,5.83
2019-05-30T03:24:43.540Z,5.83
2019-05-30T03:27:14.112Z,5.81
2019-05-30T03:29:43.789Z,5.84
2019-05-30T03:32:58.316Z,5.81
2019-05-30T03:34:44.638Z,5.82
2019-05-30T03:37:26.957Z,5.82
2019-05-30T03:39:45.573Z,5.81
2019-05-30T03:42:15.984Z,5.80
2019-05-30T03:44:45.699Z,5.77
2019-05-30T03:47:16.869Z,5.76
2019-05-30T03:49:47.036Z,5.80
2019-05-30T03:52:18.321Z,5.85
2019-05-30T03:54:48.562Z,5.92
2019-05-30T03:57:21.175Z,5.92
2019-05-30T04:00:00.378Z,5.96
2019-05-30T04:02:57.082Z,6.01
2019-05-30T04:05:22.340Z,6.04
2019-05-30T04:07:54.220Z,6.07
2019-05-30T04:10:26.845Z,6.16
2019-05-30T04:13:16.835Z,6.17
2019-05-30T04:15:46.574Z,6.25
2019-05-30T04:18:16.893Z,6.34
2019-05-30T04:20:46.460Z,6.42
2019-05-30T04:23:17.583Z,6.48
2019-05-30T04:25:47.975Z,6.59
2019-05-30T04:28:18.814Z,6.71
2019-05-30T04:30:48.369Z,6.72
2019-05-30T04:33:31.685Z,6.80
2019-05-30T04:35:49.673Z,6.84
2019-05-30T04:38:19.716Z,6.88
2019-05-30T04:40:49.406Z,6.93
2019-05-30T04:43:20.325Z,7.01
2019-05-30T04:45:51.567Z,7.07
2019-05-30T04:48:24.404Z,7.18
2019-05-30T04:50:57.626Z,7.23
2019-05-30T04:53:28.088Z,7.33
2019-05-30T04:55:58.975Z,7.41
2019-05-30T04:58:31.260Z,7.44
2019-05-30T05:01:01.201Z,7.49
2019-05-30T05:03:44.923Z,7.60
2019-05-30T05:06:01.799Z,7.71
2019-05-30T05:08:32.514Z,7.80
2019-05-30T05:11:01.951Z,7.80
2019-05-30T05:13:31.415Z,7.94
2019-05-30T05:16:00.849Z,8.06
2019-05-30T05:18:30.347Z,8.13
2019-05-30T05:20:59.904Z,8.22
2019-05-30T05:23:29.391Z,8.30
2019-05-30T05:26:01.276Z,8.36
2019-05-30T05:28:30.044Z,8.43
2019-05-30T05:31:01.217Z,8.51
2019-05-30T05:33:53.693Z,8.66
2019-05-30T05:36:13.087Z,9.06
2019-05-30T05:38:55.764Z,10.03
2019-05-30T05:41:29.496Z,11.26
2019-05-30T05:44:04.681Z,12.16
2019-05-30T05:46:36.344Z,13.18
2019-05-30T05:49:06.353Z,14.37
2019-05-30T05:51:46.953Z,15.35
2019-05-30T05:54:50.294Z,16.19
2019-05-30T05:56:51.677Z,16.74
2019-05-30T05:59:21.152Z,17.37
2019-05-30T06:01:50.625Z,17.99
2019-05-30T06:04:21.121Z,18.82
2019-05-30T06:06:50.635Z,18.13
2019-05-30T06:09:20.584Z,18.25
2019-05-30T06:11:50.153Z,17.57
2019-05-30T06:14:19.987Z,19.28
2019-05-30T06:16:49.469Z,20.46
2019-05-30T06:19:19.264Z,19.97
2019-05-30T06:21:53.831Z,19.62
2019-05-30T06:24:21.622Z,20.14
2019-05-30T06:26:52.454Z,19.46
2019-05-30T06:29:22.101Z,20.73
2019-05-30T06:31:51.714Z,21.26
2019-05-30T06:34:36.655Z,21.23
2019-05-30T06:36:58.137Z,21.82
2019-05-30T06:39:27.710Z,23.45
2019-05-30T06:41:59.125Z,22.16
2019-05-30T06:44:28.565Z,22.76
2019-05-30T06:46:58.166Z,23.42
2019-05-30T06:49:29.021Z,23.15
2019-05-30T06:52:04.656Z,21.74
2019-05-30T06:54:34.172Z,22.44
2019-05-30T06:57:03.674Z,23.00
2019-05-30T06:59:33.122Z,21.81
2019-05-30T07:02:17.022Z,21.50
2019-05-30T07:04:51.613Z,20.86
2019-05-30T07:07:18.397Z,20.97
2019-05-30T07:09:47.827Z,22.31
2019-05-30T07:12:17.271Z,23.66
2019-05-30T07:14:46.804Z,25.79
2019-05-30T07:17:16.246Z,24.84
2019-05-30T07:19:45.725Z,23.36
2019-05-30T07:22:15.189Z,23.83
2019-05-30T07:24:44.640Z,23.80
2019-05-30T07:27:14.089Z,23.81
2019-05-30T07:29:43.566Z,23.08
2019-05-30T07:32:13.619Z,24.66
2019-05-30T07:34:46.013Z,24.09
2019-05-30T07:37:15.004Z,26.05
2019-05-30T07:39:44.761Z,26.92
2019-05-30T07:42:14.269Z,28.57
2019-05-30T07:44:43.856Z,26.79
2019-05-30T07:47:13.390Z,26.19
2019-05-30T07:49:42.895Z,26.59
2019-05-30T07:52:12.363Z,26.21
2019-05-30T07:54:41.831Z,25.58
2019-05-30T07:57:11.582Z,24.18
2019-05-30T07:59:41.026Z,24.89
2019-05-30T08:02:10.612Z,23.11
2019-05-30T08:04:40.118Z,23.99
2019-05-30T08:07:09.547Z,25.39
2019-05-30T08:09:39.325Z,26.67
2019-05-30T08:12:08.877Z,27.39
2019-05-30T08:14:38.713Z,26.84
2019-05-30T08:17:08.165Z,27.50
2019-05-30T08:19:38.210Z,27.60
2019-05-30T08:22:07.791Z,28.72
2019-05-30T08:24:38.718Z,28.86
2019-05-30T08:27:08.406Z,29.81
2019-05-30T08:29:38.554Z,29.82
2019-05-30T08:32:08.188Z,27.48
2019-05-30T08:34:38.754Z,27.95
2019-05-30T08:37:08.554Z,27.30
2019-05-30T08:39:39.303Z,24.17
2019-05-30T08:42:08.798Z,26.53
2019-05-30T08:44:38.233Z,27.58
2019-05-30T08:47:08.660Z,24.44
2019-05-30T08:49:38.310Z,25.70
2019-05-30T08:52:07.763Z,26.98
2019-05-30T08:54:38.449Z,28.36
2019-05-30T08:57:08.089Z,28.76
2019-05-30T08:59:38.612Z,28.17
2019-05-30T09:02:08.505Z,27.89
2019-05-30T09:04:38.076Z,27.55
2019-05-30T09:07:07.805Z,27.80
2019-05-30T09:09:38.112Z,26.77
2019-05-30T09:12:07.863Z,28.56
2019-05-30T09:14:39.114Z,30.26
2019-05-30T09:17:08.718Z,28.71
2019-05-30T09:19:39.787Z,28.67
2019-05-30T09:22:09.845Z,29.70
2019-05-30T09:24:40.449Z,29.14
2019-05-30T09:27:10.592Z,29.62
2019-05-30T09:29:41.681Z,29.05
2019-05-30T09:32:23.444Z,28.15
2019-05-30T09:34:53.271Z,27.05
2019-05-30T09:37:26.306Z,27.02
2019-05-30T09:40:01.456Z,27.89
2019-05-30T09:42:31.420Z,28.81
2019-05-30T09:45:03.565Z,27.69
2019-05-30T09:47:36.270Z,27.56
2019-05-30T09:50:13.188Z,28.10
2019-05-30T09:53:07.336Z,27.86
2019-05-30T09:55:54.580Z,28.41
2019-05-30T09:58:25.064Z,28.03
2019-05-30T10:01:00.763Z,28.17
2019-05-30T10:03:30.881Z,28.69
2019-05-30T10:06:28.548Z,29.64
2019-05-30T10:08:46.588Z,29.84
2019-05-30T10:11:21.471Z,29.91
2019-05-30T10:13:51.257Z,30.65
2019-05-30T10:16:22.019Z,29.02
2019-05-30T10:18:52.830Z,30.29
2019-05-30T10:21:22.400Z,29.95
2019-05-30T10:23:52.510Z,30.66
2019-05-30T10:26:23.944Z,30.84
2019-05-30T10:28:53.893Z,30.80
2019-05-30T10:31:23.346Z,29.98
2019-05-30T10:33:53.128Z,29.70
2019-05-30T10:36:22.831Z,27.91
2019-05-30T10:38:52.365Z,26.42
2019-05-30T10:41:21.822Z,28.66
2019-05-30T10:43:51.326Z,27.79
2019-05-30T10:46:20.810Z,26.60
2019-05-30T10:48:50.900Z,28.20
2019-05-30T10:51:20.511Z,29.51
2019-05-30T10:53:50.897Z,30.92
2019-05-30T10:56:21.136Z,30.36
2019-05-30T10:58:50.811Z,29.90
2019-05-30T11:01:20.505Z,29.34
2019-05-30T11:03:50.369Z,29.75
2019-05-30T11:06:23.650Z,30.05
2019-05-30T11:08:53.484Z,28.48
2019-05-30T11:11:22.920Z,29.40
2019-05-30T11:13:53.251Z,30.37
2019-05-30T11:16:22.827Z,28.57
2019-05-30T11:18:53.132Z,29.16
2019-05-30T11:21:23.824Z,28.40
2019-05-30T11:23:54.413Z,29.51
2019-05-30T11:26:23.936Z,29.53
2019-05-30T11:28:54.700Z,30.04
2019-05-30T11:31:24.358Z,30.81
2019-05-30T11:33:55.024Z,31.85
2019-05-30T11:36:24.504Z,31.69
2019-05-30T11:38:55.347Z,32.36
2019-05-30T11:41:24.786Z,31.79
2019-05-30T11:43:55.586Z,32.78
2019-05-30T11:46:25.361Z,33.27
2019-05-30T11:48:55.685Z,33.22
2019-05-30T11:51:25.204Z,33.29
2019-05-30T11:53:55.855Z,32.47
2019-05-30T11:56:25.355Z,32.07
2019-05-30T11:58:55.993Z,31.36
2019-05-30T12:01:25.577Z,31.93
2019-05-30T12:03:56.449Z,32.84
2019-05-30T12:06:25.987Z,32.71
2019-05-30T12:08:55.460Z,33.09
2019-05-30T12:11:24.918Z,33.22
2019-05-30T12:13:55.207Z,32.21
2019-05-30T12:16:24.733Z,31.79
2019-05-30T12:18:55.760Z,32.13
2019-05-30T12:21:25.315Z,31.51
2019-05-30T12:23:55.938Z,31.36
2019-05-30T12:26:25.445Z,30.73
2019-05-30T12:28:55.952Z,31.53
2019-05-30T12:31:25.429Z,31.76
2019-05-30T12:33:56.161Z,30.64
2019-05-30T12:36:26.613Z,30.45
2019-05-30T12:38:56.438Z,28.98
2019-05-30T12:41:25.885Z,29.30
2019-05-30T12:43:56.960Z,30.62
2019-05-30T12:46:26.544Z,30.64
2019-05-30T12:48:57.213Z,31.29
2019-05-30T12:51:26.738Z,30.63
2019-05-30T12:53:56.405Z,31.02
2019-05-30T12:56:25.832Z,30.71
2019-05-30T12:58:56.479Z,28.35
2019-05-30T13:01:27.457Z,29.76
2019-05-30T13:03:57.159Z,31.22
2019-05-30T13:06:26.808Z,30.35
2019-05-30T13:09:04.359Z,30.55
2019-05-30T13:11:34.012Z,30.92
2019-05-30T13:14:03.758Z,30.43
2019-05-30T13:16:33.201Z,26.13
2019-05-30T13:19:04.384Z,25.99
2019-05-30T13:21:33.975Z,27.00
2019-05-30T13:24:03.780Z,27.52
2019-05-30T13:26:33.374Z,27.74
2019-05-30T13:29:04.281Z,28.74
2019-05-30T13:31:34.467Z,29.29
2019-05-30T13:34:04.951Z,29.25
2019-05-30T13:36:34.489Z,29.32
2019-05-30T13:39:05.250Z,29.46
2019-05-30T13:41:34.999Z,28.98
2019-05-30T13:44:06.836Z,28.80
2019-05-30T13:46:35.900Z,28.12
2019-05-30T13:49:06.707Z,28.69
2019-05-30T13:51:36.356Z,29.41
2019-05-30T13:54:05.845Z,29.91
2019-05-30T13:56:35.320Z,29.78
2019-05-30T13:59:05.986Z,29.74
2019-05-30T14:01:35.452Z,29.75
2019-05-30T14:04:06.197Z,29.79
2019-05-30T14:06:42.018Z,29.73
2019-05-30T14:09:12.170Z,29.77
2019-05-30T14:11:42.008Z,29.62
2019-05-30T14:14:11.449Z,29.22
2019-05-30T14:16:40.912Z,28.78
2019-05-30T14:19:11.549Z,28.69
2019-05-30T14:21:41.553Z,29.16
2019-05-30T14:24:11.590Z,28.97
2019-05-30T14:26:41.407Z,28.70
2019-05-30T14:29:11.970Z,28.23
2019-05-30T14:31:41.483Z,28.74
2019-05-30T14:34:12.255Z,28.48
2019-05-30T14:36:41.757Z,28.53
2019-05-30T14:39:13.173Z,29.14
2019-05-30T14:41:42.995Z,28.80
2019-05-30T14:44:12.449Z,28.92
2019-05-30T14:46:41.977Z,28.66
2019-05-30T14:49:12.670Z,28.43
2019-05-30T14:51:42.258Z,28.71
2019-05-30T14:54:13.050Z,29.15
2019-05-30T14:56:42.995Z,29.64
2019-05-30T14:59:13.154Z,29.30
2019-05-30T15:01:43.004Z,28.87
2019-05-30T15:04:13.457Z,28.86
2019-05-30T15:06:43.852Z,28.69
2019-05-30T15:09:22.408Z,27.96
2019-05-30T15:11:44.769Z,28.36
2019-05-30T15:14:14.218Z,28.88
2019-05-30T15:16:43.690Z,28.28
2019-05-30T15:19:14.287Z,28.05
2019-05-30T15:21:44.796Z,27.96
2019-05-30T15:24:14.369Z,28.04
2019-05-30T15:29:40.529Z,28.04
2019-05-30T15:32:10.300Z,27.87
2019-05-30T15:34:39.800Z,27.13
2019-05-30T15:37:09.302Z,26.84
2019-05-30T15:39:38.842Z,26.66
2019-05-30T15:42:09.114Z,26.94
2019-05-30T15:44:38.550Z,27.35
2019-05-30T15:47:08.041Z,27.12
2019-05-30T15:49:37.469Z,26.94
2019-05-30T15:52:07.194Z,26.50
2019-05-30T15:54:36.638Z,26.39
2019-05-30T15:57:06.121Z,25.80
2019-05-30T15:59:35.590Z,26.45
2019-05-30T16:02:06.616Z,26.50
2019-05-30T16:04:36.072Z,26.69
2019-05-30T16:07:05.526Z,26.56
2019-05-30T16:09:46.745Z,26.13
2019-05-30T16:12:06.390Z,25.93
2019-05-30T16:14:36.294Z,25.84
2019-05-30T16:17:05.744Z,25.77
2019-05-30T16:19:35.223Z,25.87
2019-05-30T16:22:04.861Z,25.75
2019-05-30T16:24:34.313Z,25.49
2019-05-30T16:27:03.777Z,25.19
2019-05-30T16:29:33.253Z,25.68
2019-05-30T16:32:02.795Z,25.65
2019-05-30T16:34:32.941Z,25.92
2019-05-30T16:37:02.504Z,26.21
2019-05-30T16:39:31.978Z,25.98
2019-05-30T16:42:01.791Z,25.51
2019-05-30T16:44:31.604Z,25.59
2019-05-30T16:47:01.262Z,25.58
2019-05-30T16:49:30.714Z,25.23
2019-05-30T16:52:00.175Z,24.64
2019-05-30T16:54:29.648Z,24.61
2019-05-30T16:56:59.460Z,24.66
2019-05-30T16:59:28.917Z,24.82
2019-05-30T17:01:58.718Z,24.72
2019-05-30T17:04:28.170Z,24.60
2019-05-30T17:06:57.633Z,24.41
2019-05-30T17:09:27.648Z,24.28
2019-05-30T17:11:57.162Z,24.15
2019-05-30T17:14:26.611Z,23.99
2019-05-30T17:16:56.453Z,23.78
2019-05-30T17:19:26.541Z,23.56
2019-05-30T17:21:56.080Z,23.31
2019-05-30T17:24:25.556Z,22.93
2019-05-30T17:26:55.019Z,22.57
2019-05-30T17:29:25.689Z,22.41
2019-05-30T17:31:55.207Z,22.21
2019-05-30T17:34:24.651Z,22.19
2019-05-30T17:36:54.371Z,22.13
2019-05-30T17:39:24.586Z,22.15
2019-05-30T17:41:54.041Z,21.98
2019-05-30T17:44:23.480Z,21.81
2019-05-30T17:46:52.921Z,21.63
2019-05-30T17:49:23.611Z,21.41
2019-05-30T17:51:53.115Z,21.29
2019-05-30T17:54:23.580Z,21.18
2019-05-30T17:56:53.221Z,21.09
2019-05-30T17:59:22.697Z,20.88
2019-05-30T18:01:52.163Z,20.65
2019-05-30T18:04:22.644Z,20.44
2019-05-30T18:06:52.442Z,20.24
2019-05-30T18:09:23.050Z,20.08
2019-05-30T18:11:52.573Z,19.96
2019-05-30T18:14:23.018Z,19.83
2019-05-30T18:16:52.458Z,19.69
2019-05-30T18:19:23.152Z,19.54
2019-05-30T18:21:52.785Z,19.38
2019-05-30T18:24:23.370Z,19.23
2019-05-30T18:26:52.969Z,19.10
2019-05-30T18:29:23.818Z,18.93
2019-05-30T18:31:53.464Z,18.73
2019-05-30T18:34:24.017Z,18.56
2019-05-30T18:36:53.669Z,18.41
2019-05-30T18:39:24.387Z,18.28
2019-05-30T18:41:54.211Z,18.13
2019-05-30T18:44:25.082Z,18.05
2019-05-30T18:46:54.824Z,17.96
2019-05-30T18:49:24.986Z,17.89
2019-05-30T18:51:54.491Z,17.80
2019-05-30T18:54:24.406Z,17.71
2019-05-30T18:56:53.838Z,17.63
2019-05-30T18:59:23.275Z,17.53
2019-05-30T19:01:52.718Z,17.38
2019-05-30T19:04:22.936Z,17.26
2019-05-30T19:06:52.972Z,17.13
2019-05-30T19:09:22.417Z,17.02
2019-05-30T19:11:51.932Z,16.89
2019-05-30T19:14:21.381Z,16.77
2019-05-30T19:16:50.933Z,16.70
2019-05-30T19:19:20.364Z,16.63
2019-05-30T19:21:50.041Z,16.55
2019-05-30T19:24:19.487Z,16.49
2019-05-30T19:26:48.983Z,16.45
2019-05-30T19:29:18.476Z,16.41
2019-05-30T19:31:47.935Z,16.37
2019-05-30T19:34:17.395Z,16.35
2019-05-30T19:36:46.845Z,16.31
2019-05-30T19:39:16.324Z,16.33
2019-05-30T19:41:55.486Z,16.37
2019-05-30T19:44:16.978Z,16.39
2019-05-30T19:46:47.428Z,16.44
2019-05-30T19:49:17.485Z,16.46
2019-05-30T19:51:47.228Z,16.49
2019-05-30T19:54:16.748Z,16.55
2019-05-30T19:56:46.201Z,16.58
2019-05-30T19:59:15.655Z,16.59
2019-05-30T20:01:45.160Z,16.61
2019-05-30T20:04:14.662Z,16.66
2019-05-30T20:06:44.145Z,16.66
2019-05-30T20:09:13.612Z,16.69
2019-05-30T20:11:43.222Z,16.73
2019-05-30T20:14:12.692Z,16.76
2019-05-30T20:16:42.180Z,16.78
2019-05-30T20:19:11.660Z,16.81
2019-05-30T20:21:42.031Z,16.81
2019-05-30T20:24:11.866Z,16.82
2019-05-30T20:26:41.333Z,16.84
2019-05-30T20:29:11.163Z,16.84
2019-05-30T20:31:41.481Z,16.85
2019-05-30T20:34:11.043Z,16.88
2019-05-30T20:36:40.697Z,16.90
2019-05-30T20:39:10.216Z,16.92
2019-05-30T20:41:40.776Z,16.93
2019-05-30T20:44:10.416Z,16.88
2019-05-30T20:46:41.105Z,16.86
2019-05-30T20:49:10.743Z,16.83
2019-05-30T20:51:41.301Z,16.82
2019-05-30T20:54:11.105Z,16.83
2019-05-30T20:56:41.567Z,16.86
2019-05-30T20:59:10.990Z,16.88
2019-05-30T21:01:41.749Z,16.91
2019-05-30T21:04:11.237Z,16.97
2019-05-30T21:06:41.539Z,17.00
2019-05-30T21:09:27.885Z,16.99
2019-05-30T21:11:44.345Z,17.01
2019-05-30T21:14:14.341Z,17.01
2019-05-30T21:16:45.525Z,17.01
2019-05-30T21:19:15.403Z,16.98
2019-05-30T21:21:46.217Z,17.00
2019-05-30T21:24:16.135Z,16.99
2019-05-30T21:26:46.893Z,16.96
2019-05-30T21:29:16.568Z,16.93
2019-05-30T21:31:47.386Z,16.92
2019-05-30T21:34:17.082Z,16.93
2019-05-30T21:36:46.592Z,16.88
2019-05-30T21:39:17.157Z,16.83
2019-05-30T21:41:46.630Z,16.83
2019-05-30T21:44:16.111Z,16.82
2019-05-30T21:46:46.781Z,16.76
2019-05-30T21:49:16.330Z,16.71
2019-05-30T21:51:45.807Z,16.69
2019-05-30T21:54:15.285Z,16.68
2019-05-30T21:56:45.928Z,16.67
2019-05-30T21:59:15.558Z,16.67
2019-05-30T22:01:45.121Z,16.64
2019-05-30T22:04:15.842Z,16.64
2019-05-30T22:06:45.302Z,16.64
2019-05-30T22:09:14.778Z,16.54
2019-05-30T22:11:45.370Z,16.49
2019-05-30T22:14:15.117Z,16.49
2019-05-30T22:16:45.809Z,16.49
2019-05-30T22:19:15.788Z,16.40
2019-05-30T22:21:46.133Z,16.32
2019-05-30T22:24:15.613Z,16.34
2019-05-30T22:26:46.268Z,16.34
2019-05-30T22:29:15.807Z,16.35
2019-05-30T22:31:46.498Z,16.33
2019-05-30T22:34:16.397Z,16.25
2019-05-30T22:36:46.754Z,16.17
2019-05-30T22:39:16.335Z,16.03
2019-05-30T22:41:46.148Z,15.94
2019-05-30T22:44:15.605Z,15.89
2019-05-30T22:46:46.188Z,15.85
2019-05-30T22:49:17.617Z,15.82
2019-05-30T22:51:47.401Z,15.80
2019-05-30T22:54:16.858Z,15.75
2019-05-30T22:56:47.297Z,15.73
2019-05-30T22:59:16.759Z,15.71
2019-05-30T23:01:46.909Z,15.69
2019-05-30T23:04:16.714Z,15.70
2019-05-30T23:06:46.356Z,15.69
2019-05-30T23:09:15.831Z,15.72
2019-05-30T23:11:45.620Z,15.71
2019-05-30T23:14:15.316Z,15.72
2019-05-30T23:16:46.053Z,15.77
2019-05-30T23:19:16.478Z,15.78
2019-05-30T23:21:46.804Z,15.80
2019-05-30T23:24:16.265Z,15.79
2019-05-30T23:26:45.714Z,15.69
2019-05-30T23:29:15.190Z,15.65
2019-05-30T23:31:44.961Z,15.61
2019-05-30T23:34:14.407Z,15.50
2019-05-30T23:36:43.850Z,15.44
2019-05-30T23:39:13.311Z,15.35
2019-05-30T23:41:42.760Z,15.28
2019-05-30T23:44:12.315Z,15.25
2019-05-30T23:46:41.764Z,15.20
2019-05-30T23:49:11.245Z,15.22
2019-05-30T23:51:40.682Z,15.22
2019-05-30T23:54:10.121Z,15.30
2019-05-30T23:56:42.203Z,15.33
2019-05-30T23:59:10.734Z,15.37
